createdAt,value
2018-12-17T17:59:31.214Z,80.57
2018-12-17T18:01:58.803Z,80.07
2018-12-17T18:04:26.309Z,79.90
2018-12-17T18:06:53.814Z,79.52
2018-12-17T18:09:21.289Z,79.14
2018-12-17T18:11:48.758Z,79.86
2018-12-17T18:14:16.254Z,80.03
2018-12-17T18:16:43.729Z,79.87
2018-12-17T18:19:11.278Z,80.01
2018-12-17T18:21:38.751Z,79.61
2018-12-17T18:24:06.239Z,79.36
2018-12-17T18:26:33.687Z,79.74
2018-12-17T18:29:02.699Z,79.26
2018-12-17T18:31:30.349Z,79.34
2018-12-17T18:33:57.845Z,79.63
2018-12-17T18:36:25.334Z,81.09
2018-12-17T18:38:52.897Z,79.49
2018-12-17T18:41:20.373Z,78.20
2018-12-17T18:43:47.824Z,77.92
2018-12-17T18:46:15.299Z,78.41
2018-12-17T18:48:42.743Z,78.68
2018-12-17T18:51:10.243Z,79.33
2018-12-17T18:53:37.689Z,79.39
2018-12-17T18:56:05.143Z,79.30
2018-12-17T18:58:32.645Z,79.09
2018-12-17T19:01:00.103Z,79.21
2018-12-17T19:03:27.715Z,78.96
2018-12-17T19:05:55.158Z,78.37
2018-12-17T19:08:22.617Z,79.07
2018-12-17T19:10:50.108Z,79.16
2018-12-17T19:13:17.642Z,78.14
2018-12-17T19:15:45.132Z,77.33
2018-12-17T19:18:12.601Z,77.66
2018-12-17T19:20:40.080Z,77.49
2018-12-17T19:23:07.567Z,77.00
2018-12-17T19:25:35.078Z,78.27
2018-12-17T19:28:02.699Z,78.42
2018-12-17T19:30:30.161Z,78.60
2018-12-17T19:32:57.655Z,78.82
2018-12-17T19:35:25.442Z,78.74
2018-12-17T19:37:52.909Z,78.00
2018-12-17T19:40:20.395Z,77.91
2018-12-17T19:42:47.890Z,77.61
2018-12-17T19:45:15.366Z,77.82
2018-12-17T19:47:42.842Z,78.92
2018-12-17T19:50:10.322Z,77.51
2018-12-17T19:52:37.809Z,76.86
2018-12-17T19:55:05.834Z,77.25
2018-12-17T19:57:33.246Z,77.37
2018-12-17T20:00:00.770Z,77.81
2018-12-17T20:02:28.208Z,78.94
2018-12-17T20:04:55.703Z,78.64
2018-12-17T20:07:23.144Z,78.64
2018-12-17T20:09:50.639Z,78.27
2018-12-17T20:12:18.123Z,78.56
2018-12-17T20:14:45.576Z,78.31
2018-12-17T20:17:13.081Z,77.67
2018-12-17T20:19:40.643Z,77.74
2018-12-17T20:22:08.149Z,77.79
2018-12-17T20:24:35.638Z,79.11
2018-12-17T20:27:03.153Z,77.71
2018-12-17T20:29:30.758Z,76.78
2018-12-17T20:31:58.235Z,76.67
2018-12-17T20:34:25.693Z,77.67
2018-12-17T20:36:53.203Z,78.26
2018-12-17T20:39:20.659Z,78.52
2018-12-17T20:41:48.138Z,78.72
2018-12-17T20:44:15.615Z,79.08
2018-12-17T20:46:43.093Z,78.36
2018-12-17T20:49:10.595Z,78.42
2018-12-17T20:51:38.050Z,78.09
2018-12-17T20:54:05.553Z,77.51
2018-12-17T20:56:33.074Z,77.38
2018-12-17T20:59:00.575Z,78.94
2018-12-17T21:01:28.104Z,78.33
2018-12-17T21:03:55.587Z,77.13
2018-12-17T21:06:23.096Z,77.20
2018-12-17T21:08:50.614Z,76.76
2018-12-17T21:11:18.084Z,77.00
2018-12-17T21:13:45.629Z,77.77
2018-12-17T21:16:13.094Z,77.50
2018-12-17T21:18:40.522Z,77.92
2018-12-17T21:21:08.029Z,77.66
2018-12-17T21:23:35.804Z,77.70
2018-12-17T21:26:03.413Z,77.80
2018-12-17T21:28:30.897Z,78.12
2018-12-17T21:30:58.378Z,78.04
2018-12-17T21:33:25.893Z,78.28
2018-12-17T21:35:53.354Z,79.70
2018-12-17T21:38:20.812Z,77.92
2018-12-17T21:40:48.292Z,77.50
2018-12-17T21:43:15.793Z,77.33
2018-12-17T21:45:43.270Z,78.09
2018-12-17T21:48:10.786Z,78.05
2018-12-17T21:50:38.367Z,78.41
2018-12-17T21:53:05.838Z,77.99
2018-12-17T21:55:33.335Z,78.07
2018-12-17T21:58:00.839Z,77.71
2018-12-17T22:00:28.329Z,77.60
2018-12-17T22:02:55.771Z,77.58
2018-12-17T22:05:23.217Z,77.77
2018-12-17T22:07:50.719Z,77.96
2018-12-17T22:10:23.692Z,79.39
2018-12-17T22:12:51.185Z,80.19
2018-12-17T22:15:18.643Z,78.25
2018-12-17T22:17:46.135Z,77.02
2018-12-17T22:20:13.616Z,76.45
2018-12-17T22:22:41.066Z,76.85
2018-12-17T22:25:08.585Z,78.26
2018-12-17T22:27:36.038Z,78.11
2018-12-17T22:30:05.498Z,78.32
2018-12-17T22:32:33.016Z,77.87
2018-12-17T22:35:00.458Z,77.48
2018-12-17T22:37:27.933Z,77.94
2018-12-17T22:39:55.383Z,77.95
2018-12-17T22:42:22.841Z,77.56
2018-12-17T22:44:50.311Z,77.38
2018-12-17T22:47:17.763Z,78.12
2018-12-17T22:49:45.266Z,76.86
2018-12-17T22:52:12.733Z,75.12
2018-12-17T22:54:40.196Z,76.36
2018-12-17T22:57:07.683Z,76.72
2018-12-17T22:59:36.072Z,76.78
2018-12-17T23:02:03.516Z,76.98
2018-12-17T23:04:31.120Z,77.28
2018-12-17T23:06:58.577Z,77.29
2018-12-17T23:09:26.055Z,77.06
2018-12-17T23:12:08.459Z,76.50
2018-12-17T23:14:47.662Z,76.87
2018-12-17T23:17:27.052Z,77.33
2018-12-17T23:19:54.527Z,76.96
2018-12-17T23:22:22.011Z,77.55
2018-12-17T23:24:49.651Z,77.21
2018-12-17T23:27:17.142Z,76.39
2018-12-17T23:29:44.686Z,76.36
2018-12-17T23:32:12.190Z,75.83
2018-12-17T23:34:39.631Z,75.97
2018-12-17T23:37:07.109Z,76.26
2018-12-17T23:39:34.558Z,75.99
2018-12-17T23:42:02.051Z,76.42
2018-12-17T23:47:10.978Z,76.34
2018-12-17T23:49:38.431Z,76.22
2018-12-17T23:52:05.924Z,76.44
2018-12-17T23:54:33.369Z,76.57
2018-12-17T23:57:00.895Z,76.75
2018-12-17T23:59:28.351Z,78.88
